Time;durP1;ratioP1;P1;durP2;ratioP2;P2;SDS_P1;SDS_P2;PMS_P1;PMS_P2;Temp;Humidity;BMP_temperature;BMP_pressure;BME280_temperature;BME280_humidity;BME280_pressure;Samples;Min_cycle;Max_cycle;Signal;HPM_P1;HPM_P2
2023/01/29 00:01:08;;;;;;;1.70;1.60;;;;;;;20.31;31.11;99911.56;1884539;75;28203;-61
2023/01/29 00:03:56;;;;;;;1.47;1.47;;;;;;;20.31;31.12;99916.50;1884500;75;28184;-59
2023/01/29 00:06:45;;;;;;;1.47;1.40;;;;;;;20.28;31.16;99907.36;1884524;75;28228;-59
2023/01/29 00:09:34;;;;;;;1.40;1.40;;;;;;;20.27;31.17;99906.22;1884354;75;28146;-60
2023/01/29 00:12:22;;;;;;;1.52;1.42;;;;;;;20.26;31.21;99914.92;1884343;75;28106;-59
2023/01/29 00:15:11;;;;;;;1.65;1.55;;;;;;;20.30;31.13;99914.84;1866420;75;28125;-59
2023/01/29 00:17:59;;;;;;;1.70;1.60;;;;;;;20.29;31.10;99904.96;1884135;75;28273;-60
2023/01/29 00:20:48;;;;;;;1.50;1.50;;;;;;;20.29;31.13;99906.84;1884468;75;28121;-59
2023/01/29 00:23:36;;;;;;;1.73;1.63;;;;;;;20.29;31.11;99911.78;1864836;75;28270;-61
2023/01/29 00:26:26;;;;;;;1.50;1.40;;;;;;;20.29;31.13;99913.66;1865539;75;28191;-59
2023/01/29 00:29:14;;;;;;;1.60;1.50;;;;;;;20.28;31.14;99905.18;1854305;75;28298;-60
2023/01/29 00:32:03;;;;;;;1.50;1.40;;;;;;;20.29;31.12;99907.69;1875465;75;28205;-60
2023/01/29 00:34:52;;;;;;;1.67;1.57;;;;;;;20.30;31.11;99901.72;1851990;75;28213;-60
2023/01/29 00:37:40;;;;;;;1.60;1.50;;;;;;;20.28;31.14;99904.63;1837716;77;28750;-60
2023/01/29 00:44:56;;;;;;;1.50;1.50;;;;;;;20.30;31.12;99901.72;1864496;76;28319;-59
2023/01/29 00:46:25;;;;;;;1.52;1.50;;;;;;;20.27;31.15;99897.52;1868351;76;28142;-60
2023/01/29 00:49:13;;;;;;;1.65;1.55;;;;;;;20.27;31.13;99896.67;1851212;76;28141;-60
2023/01/29 00:55:10;;;;;;;1.30;1.30;;;;;;;20.25;31.15;99904.23;1868807;74;28023;-60
2023/01/29 00:57:58;;;;;;;1.80;1.70;;;;;;;20.25;31.14;99900.98;1868733;76;28102;-60
2023/01/29 01:00:46;;;;;;;1.60;1.50;;;;;;;20.24;31.12;99902.53;1868743;76;28114;-60
2023/01/29 01:03:40;;;;;;;1.65;1.55;;;;;;;20.24;31.17;99910.72;1857943;76;28182;-59
2023/01/29 01:06:26;;;;;;;1.50;1.40;;;;;;;20.25;31.15;99914.62;1863379;76;28116;-59
2023/01/29 01:12:22;;;;;;;1.70;1.60;;;;;;;20.28;31.13;99916.91;1856473;76;28252;-60
2023/01/29 01:15:11;;;;;;;1.40;1.40;;;;;;;20.25;31.11;99906.44;1851025;76;28433;-59
2023/01/29 01:18:03;;;;;;;1.77;1.67;;;;;;;20.25;31.13;99921.44;1868935;76;28185;-60
2023/01/29 01:20:56;;;;;;;1.75;1.65;;;;;;;20.27;31.12;99924.80;1868809;76;28196;-59
2023/01/29 01:23:45;;;;;;;1.60;1.50;;;;;;;20.27;31.06;99923.43;1868876;76;28184;-59
2023/01/29 01:26:34;;;;;;;1.75;1.65;;;;;;;20.25;31.17;99917.86;1851746;76;28213;-60
2023/01/29 01:29:23;;;;;;;1.70;1.60;;;;;;;20.26;31.13;99915.44;1868993;76;28262;-60
2023/01/29 01:32:11;;;;;;;1.60;1.50;;;;;;;20.27;31.10;99926.67;1868789;76;28094;-60
2023/01/29 01:35:00;;;;;;;1.75;1.65;;;;;;;20.26;31.10;99927.71;1869003;76;28141;-59
2023/01/29 01:37:48;;;;;;;1.55;1.45;;;;;;;20.26;31.11;99935.38;1849891;76;28146;-59
2023/01/29 01:40:36;;;;;;;1.67;1.60;;;;;;;20.27;31.10;99926.16;1846872;76;28225;-59
2023/01/29 01:43:25;;;;;;;1.80;1.70;;;;;;;20.27;31.05;99926.67;1869331;76;28206;-59
2023/01/29 01:46:13;;;;;;;1.63;1.53;;;;;;;20.29;31.07;99934.13;1869170;76;28251;-59
2023/01/29 01:49:05;;;;;;;1.50;1.50;;;;;;;20.29;31.07;99935.48;1848060;76;28163;-59
2023/01/29 01:51:54;;;;;;;1.60;1.50;;;;;;;20.27;31.03;99928.89;1869075;76;28120;-62
2023/01/29 01:54:44;;;;;;;1.63;1.53;;;;;;;20.28;31.05;99929.73;1869257;74;28697;-58
2023/01/29 01:57:33;;;;;;;1.50;1.50;;;;;;;20.27;31.03;99932.98;1869092;76;28233;-60
2023/01/29 02:00:23;;;;;;;1.70;1.60;;;;;;;20.28;31.05;99932.45;1869151;76;28204;-60
2023/01/29 02:09:34;;;;;;;1.70;1.60;;;;;;;20.24;31.12;99930.66;1847401;76;38571;-59
2023/01/29 02:12:23;;;;;;;1.82;1.70;;;;;;;20.23;31.09;99932.24;1869061;76;28207;-61
2023/01/29 02:15:13;;;;;;;1.70;1.60;;;;;;;20.23;31.12;99932.24;1851228;76;28115;-59
2023/01/29 02:18:03;;;;;;;1.90;1.80;;;;;;;20.24;31.05;99931.17;1869072;76;28165;-59
2023/01/29 02:21:03;;;;;;;1.60;1.50;;;;;;;20.23;31.08;99926.78;1868912;76;28125;-59
2023/01/29 02:23:57;;;;;;;1.70;1.60;;;;;;;20.23;31.07;99933.60;1869063;76;28147;-59
2023/01/29 02:27:15;;;;;;;1.87;1.77;;;;;;;20.22;31.08;99940.09;1869303;76;28118;-58
2023/01/29 02:30:07;;;;;;;1.75;1.65;;;;;;;20.19;31.10;99947.28;1851267;76;28192;-60
2023/01/29 02:33:06;;;;;;;1.77;1.67;;;;;;;20.19;31.14;99952.23;1849792;76;28193;-59
2023/01/29 02:36:20;;;;;;;1.90;1.80;;;;;;;20.18;31.18;99957.90;1862042;76;28259;-59
2023/01/29 02:39:29;;;;;;;1.70;1.60;;;;;;;20.20;31.12;99962.10;1846799;76;28223;-60
2023/01/29 02:42:29;;;;;;;1.70;1.60;;;;;;;20.17;31.16;99964.39;1868785;76;28241;-60
2023/01/29 02:45:23;;;;;;;1.80;1.70;;;;;;;20.16;31.19;99968.19;1869013;76;28259;-59
2023/01/29 02:48:14;;;;;;;1.70;1.60;;;;;;;20.12;31.22;99967.73;1868905;76;28113;-60
2023/01/29 02:51:05;;;;;;;1.52;1.50;;;;;;;20.19;31.16;99971.84;1857177;77;28121;-59
2023/01/29 02:54:02;;;;;;;1.57;1.50;;;;;;;20.19;31.13;99971.84;1837433;77;28158;-61
2023/01/29 02:57:00;;;;;;;1.98;1.60;;;;;;;20.20;31.10;99973.02;1857339;77;28090;-59
2023/01/29 02:59:51;;;;;;;1.50;1.50;;;;;;;20.20;31.11;99970.80;1856972;77;28208;-59
2023/01/29 03:02:52;;;;;;;1.80;1.70;;;;;;;20.19;31.10;99972.68;1869036;76;28277;-59
2023/01/29 03:05:49;;;;;;;1.80;1.70;;;;;;;20.19;31.12;99973.20;1852709;76;28235;-59
2023/01/29 03:09:02;;;;;;;1.80;1.70;;;;;;;20.16;31.13;99985.39;1837661;77;28167;-59
2023/01/29 03:11:54;;;;;;;1.90;1.80;;;;;;;20.16;31.13;99982.67;1849142;76;28204;-59
2023/01/29 03:18:12;;;;;;;2.00;1.90;;;;;;;20.16;31.13;99996.81;1856922;77;28193;-59
2023/01/29 03:21:48;;;;;;;1.60;1.50;;;;;;;20.17;31.10;100000.69;1868757;76;28122;-59
2023/01/29 03:33:47;;;;;;;1.55;1.55;;;;;;;20.14;31.12;100003.01;1813942;76;28587;-60
2023/01/29 03:36:48;;;;;;;2.08;1.98;;;;;;;20.13;31.20;100005.41;1859741;75;28652;-61
2023/01/29 03:39:36;;;;;;;1.52;1.42;;;;;;;20.10;31.19;99998.47;1865660;75;28194;-61
2023/01/29 03:42:40;;;;;;;1.77;1.65;;;;;;;20.14;31.18;100003.83;1884399;75;28116;-59
2023/01/29 03:45:43;;;;;;;1.70;1.60;;;;;;;20.14;31.14;99997.00;1884565;75;28140;-60
2023/01/29 03:48:37;;;;;;;1.87;1.77;;;;;;;20.16;31.13;99999.55;1884388;75;28251;-60
2023/01/29 03:51:35;;;;;;;2.10;1.80;;;;;;;20.17;31.11;100009.39;1810480;78;28292;-59
2023/01/29 03:54:29;;;;;;;1.70;1.60;;;;;;;20.16;31.11;100013.19;1842638;77;28226;-59
2023/01/29 03:57:21;;;;;;;1.80;1.70;;;;;;;20.15;31.12;100013.70;1824820;78;28404;-61
2023/01/29 04:00:20;;;;;;;1.60;1.50;;;;;;;20.14;31.13;100020.19;1817476;78;28370;-61
2023/01/29 04:03:21;;;;;;;2.00;1.90;;;;;;;20.15;31.12;100022.40;1817530;78;28360;-60
2023/01/29 04:06:18;;;;;;;1.67;1.60;;;;;;;20.15;31.12;100023.25;1819116;78;28297;-60
2023/01/29 04:09:13;;;;;;;1.80;1.70;;;;;;;20.16;31.07;100031.76;1824750;78;28282;-60
2023/01/29 04:12:09;;;;;;;1.95;1.80;;;;;;;20.15;31.12;100033.31;1794825;79;28433;-60
2023/01/29 04:15:01;;;;;;;1.72;1.62;;;;;;;20.16;31.11;100037.22;1801473;78;28383;-59
2023/01/29 04:17:52;;;;;;;1.80;1.70;;;;;;;20.18;31.07;100039.21;1829639;78;28317;-58
2023/01/29 04:20:43;;;;;;;1.50;1.50;;;;;;;20.18;31.01;100036.48;1831027;78;28840;-59
2023/01/29 04:23:31;;;;;;;1.60;1.60;;;;;;;20.15;31.05;100035.52;1831197;78;28280;-59
2023/01/29 04:26:29;;;;;;;1.80;1.70;;;;;;;20.16;31.05;100042.67;1831367;78;28359;-61
2023/01/29 04:29:31;;;;;;;1.80;1.70;;;;;;;20.17;31.05;100042.12;1809662;78;28277;-60
2023/01/29 04:32:46;;;;;;;1.80;1.70;;;;;;;20.20;31.05;100037.63;1831367;78;28428;-61
2023/01/29 04:35:58;;;;;;;1.67;1.57;;;;;;;20.15;31.08;100037.40;1831218;78;28427;-60
2023/01/29 04:39:05;;;;;;;1.90;1.80;;;;;;;20.14;31.10;100038.47;1828070;78;28815;-60
2023/01/29 04:41:59;;;;;;;1.85;1.75;;;;;;;20.11;31.12;100029.32;1815520;78;28276;-59
2023/01/29 04:44:59;;;;;;;1.80;1.70;;;;;;;20.12;31.12;100031.02;1824901;78;28416;-60
2023/01/29 04:48:08;;;;;;;1.70;1.60;;;;;;;20.10;31.11;100031.20;1868454;75;28206;-60
2023/01/29 04:51:02;;;;;;;1.95;1.75;;;;;;;20.12;31.10;100025.56;1866518;75;28121;-60
2023/01/29 04:53:53;;;;;;;1.70;1.60;;;;;;;20.11;31.08;100026.59;1884497;75;28198;-60
2023/01/29 04:56:57;;;;;;;1.70;1.60;;;;;;;20.08;31.08;100014.20;1810527;78;28247;-60
2023/01/29 04:59:54;;;;;;;1.70;1.60;;;;;;;20.12;31.08;100022.83;1817632;78;28653;-62
2023/01/29 05:02:44;;;;;;;1.70;1.60;;;;;;;20.13;31.03;100019.89;1824826;78;28781;-60
2023/01/29 05:05:33;;;;;;;1.72;1.62;;;;;;;20.13;31.04;100023.98;1824582;78;28280;-61
2023/01/29 05:08:24;;;;;;;2.05;1.85;;;;;;;20.13;31.05;100026.70;1824752;78;28289;-61
2023/01/29 05:11:14;;;;;;;1.70;1.60;;;;;;;20.14;31.04;100026.19;1816109;78;28320;-62
2023/01/29 05:14:05;;;;;;;1.85;1.75;;;;;;;20.16;31.00;100026.82;1820585;78;28360;-59
2023/01/29 05:16:57;;;;;;;1.70;1.60;;;;;;;20.16;31.00;100024.09;1825545;78;28317;-62
2023/01/29 05:19:46;;;;;;;2.00;1.90;;;;;;;20.16;31.00;100026.30;1823939;78;28383;-59
2023/01/29 05:22:38;;;;;;;2.02;1.90;;;;;;;20.15;30.99;100029.22;1829608;78;28300;-59
2023/01/29 05:25:29;;;;;;;1.85;1.70;;;;;;;20.17;30.96;100033.42;1884894;75;28208;-59
2023/01/29 05:28:18;;;;;;;1.98;1.87;;;;;;;20.17;30.97;100027.13;1867428;75;28130;-60
2023/01/29 05:31:07;;;;;;;1.87;1.77;;;;;;;20.18;30.96;100037.84;1846348;77;28261;-60
2023/01/29 05:33:56;;;;;;;1.80;1.70;;;;;;;20.16;30.95;100030.91;1831146;78;28507;-59
2023/01/29 05:36:44;;;;;;;1.70;1.60;;;;;;;20.16;30.94;100033.13;1824855;78;28352;-59
2023/01/29 05:39:33;;;;;;;2.00;1.90;;;;;;;20.16;30.93;100034.48;1804310;78;30349;-60
2023/01/29 05:42:22;;;;;;;1.87;1.77;;;;;;;20.15;30.98;100036.04;1822173;78;28424;-60
2023/01/29 05:45:11;;;;;;;1.70;1.60;;;;;;;20.13;30.97;100039.50;1822486;78;28354;-59
2023/01/29 05:48:00;;;;;;;1.82;1.72;;;;;;;20.15;30.97;100044.22;1821602;78;28260;-59
2023/01/29 05:50:49;;;;;;;1.80;1.70;;;;;;;20.14;30.96;100048.83;1804069;78;28338;-60
2023/01/29 05:53:37;;;;;;;1.80;1.70;;;;;;;20.15;30.95;100051.89;1822641;78;28350;-60
2023/01/29 05:56:26;;;;;;;1.80;1.70;;;;;;;20.16;30.93;100053.58;1817722;78;28360;-59
2023/01/29 05:59:16;;;;;;;2.00;1.90;;;;;;;20.14;30.90;100058.38;1825077;78;28373;-59
2023/01/29 06:02:05;;;;;;;1.87;1.77;;;;;;;20.16;30.94;100059.55;1803166;78;28420;-61
2023/01/29 06:04:53;;;;;;;1.90;1.80;;;;;;;20.16;30.92;100066.38;1822503;78;28743;-59
2023/01/29 06:07:44;;;;;;;1.95;1.85;;;;;;;20.14;30.90;100072.56;1822551;78;28415;-61
2023/01/29 06:10:32;;;;;;;1.90;1.80;;;;;;;20.16;30.92;100075.92;1817157;78;28762;-60
2023/01/29 06:13:20;;;;;;;1.80;1.70;;;;;;;20.14;30.92;100076.09;1804700;78;28746;-59
2023/01/29 06:16:10;;;;;;;2.00;1.90;;;;;;;20.15;30.94;100075.59;1823989;78;28473;-60
2023/01/29 06:18:58;;;;;;;1.70;1.60;;;;;;;20.13;30.94;100079.89;1821968;78;28402;-59
2023/01/29 06:21:47;;;;;;;2.08;1.98;;;;;;;20.13;30.94;100081.25;1808670;78;28356;-59
2023/01/29 06:24:35;;;;;;;1.85;1.75;;;;;;;20.14;30.89;100082.92;1824889;78;28360;-60
2023/01/29 06:27:23;;;;;;;1.80;1.70;;;;;;;20.14;30.89;100089.73;1824884;78;28943;-59
2023/01/29 06:30:13;;;;;;;1.90;1.80;;;;;;;20.14;30.90;100091.10;1820254;78;28391;-59
2023/01/29 06:33:01;;;;;;;1.82;1.72;;;;;;;20.14;30.89;100091.10;1804353;78;28268;-60
2023/01/29 06:35:49;;;;;;;1.80;1.70;;;;;;;20.13;30.89;100090.80;1822533;78;28374;-60
2023/01/29 06:38:38;;;;;;;1.90;1.80;;;;;;;20.14;30.90;100096.55;1821090;78;28417;-61
2023/01/29 06:41:27;;;;;;;1.82;1.72;;;;;;;20.12;30.91;100096.47;1813711;78;28395;-59
2023/01/29 06:44:15;;;;;;;1.82;1.72;;;;;;;20.14;30.89;100103.38;1857265;77;28621;-59
2023/01/29 06:47:04;;;;;;;1.50;1.50;;;;;;;20.14;30.89;100110.20;1857154;77;28183;-59
2023/01/29 06:49:52;;;;;;;1.98;1.65;;;;;;;20.15;30.86;100116.50;1856918;77;28203;-59
2023/01/29 06:52:40;;;;;;;1.70;1.60;;;;;;;20.12;30.89;100120.47;1869029;76;28121;-59
2023/01/29 06:55:28;;;;;;;1.60;1.50;;;;;;;20.15;30.86;100136.44;1868978;74;28174;-59
2023/01/29 06:58:17;;;;;;;1.85;1.75;;;;;;;20.12;30.86;100140.11;1852041;77;28225;-60
2023/01/29 07:01:07;;;;;;;2.08;1.98;;;;;;;20.11;30.87;100148.81;1857251;76;28242;-61
2023/01/29 07:03:56;;;;;;;1.90;1.80;;;;;;;20.13;30.89;100157.62;1868897;76;28125;-59
2023/01/29 07:06:44;;;;;;;1.80;1.70;;;;;;;20.15;30.85;100160.98;1859051;76;28662;-58
2023/01/29 07:09:33;;;;;;;1.90;1.80;;;;;;;20.14;30.84;100171.56;1846044;77;28118;-59
2023/01/29 07:12:21;;;;;;;1.75;1.65;;;;;;;20.13;30.87;100175.35;1855324;76;28271;-59
2023/01/29 07:15:19;;;;;;;2.00;1.90;;;;;;;20.12;30.85;100173.66;1856962;77;28157;-60
2023/01/29 07:18:10;;;;;;;1.90;1.80;;;;;;;20.12;30.83;100176.38;1856923;77;28245;-61
2023/01/29 07:20:54;;;;;;;1.93;1.83;;;;;;;20.11;30.85;100176.59;1857014;77;28126;-59
2023/01/29 07:23:43;;;;;;;2.00;1.80;;;;;;;20.09;30.89;100181.41;1857019;77;28216;-59
2023/01/29 07:26:31;;;;;;;1.80;1.70;;;;;;;20.07;30.91;100182.14;1851035;76;28110;-59
2023/01/29 07:29:20;;;;;;;1.62;1.60;;;;;;;20.08;30.91;100183.30;1838530;76;28282;-59
2023/01/29 07:32:08;;;;;;;1.90;1.80;;;;;;;20.10;30.90;100181.20;1848543;77;28121;-62
2023/01/29 07:34:56;;;;;;;2.05;1.80;;;;;;;20.10;30.85;100183.92;1856900;77;28176;-61
2023/01/29 07:37:46;;;;;;;1.90;1.80;;;;;;;20.12;30.87;100186.47;1838290;77;28139;-59
2023/01/29 07:40:35;;;;;;;1.82;1.70;;;;;;;20.09;30.85;100186.35;1857019;76;28212;-59
2023/01/29 07:43:29;;;;;;;1.85;1.75;;;;;;;20.09;30.86;100190.45;1856890;77;28183;-60
2023/01/29 07:46:13;;;;;;;1.82;1.72;;;;;;;20.11;30.82;100194.33;1857012;77;28587;-59
2023/01/29 07:49:01;;;;;;;1.80;1.70;;;;;;;20.10;30.88;100195.35;1837510;77;28291;-59
2023/01/29 07:51:50;;;;;;;1.80;1.70;;;;;;;20.09;30.85;100194.54;1856843;77;28208;-59
2023/01/29 07:54:38;;;;;;;1.80;1.70;;;;;;;20.10;30.87;100203.02;1868724;76;28160;-59
2023/01/29 07:57:26;;;;;;;1.87;1.77;;;;;;;20.09;30.83;100198.62;1864352;76;28266;-59
2023/01/29 08:00:16;;;;;;;1.83;1.73;;;;;;;20.11;30.85;100207.95;1868817;76;28110;-59
2023/01/29 08:03:17;;;;;;;1.60;1.50;;;;;;;20.10;30.86;100208.47;1857062;77;28273;-59
2023/01/29 08:06:06;;;;;;;2.00;1.90;;;;;;;20.11;30.83;100213.41;1868735;76;28203;-60
2023/01/29 08:08:56;;;;;;;1.90;1.80;;;;;;;20.07;30.83;100221.69;1857012;77;28126;-59
2023/01/29 08:11:44;;;;;;;1.70;1.60;;;;;;;20.11;30.85;100234.72;1857239;77;28188;-59
2023/01/29 08:14:32;;;;;;;1.80;1.70;;;;;;;20.10;30.82;100243.08;1857082;77;28231;-59
2023/01/29 08:17:20;;;;;;;1.72;1.62;;;;;;;20.10;30.81;100249.39;1868964;76;28160;-60
2023/01/29 08:20:11;;;;;;;1.80;1.70;;;;;;;20.11;30.79;100253.81;1839915;77;28106;-59
2023/01/29 08:23:05;;;;;;;1.82;1.72;;;;;;;20.12;30.78;100254.12;1869089;76;28253;-62
2023/01/29 08:25:53;;;;;;;1.77;1.67;;;;;;;20.10;30.81;100256.20;1857031;77;28248;-60
2023/01/29 08:28:41;;;;;;;1.70;1.60;;;;;;;20.10;30.82;100258.08;1856998;77;28647;-61
2023/01/29 08:31:30;;;;;;;1.60;1.50;;;;;;;20.09;30.81;100250.96;1868869;76;28182;-60
2023/01/29 08:34:18;;;;;;;1.90;1.80;;;;;;;20.10;30.78;100255.35;1856981;77;28187;-60
2023/01/29 08:37:06;;;;;;;1.87;1.77;;;;;;;20.09;30.79;100255.91;1868959;76;28152;-60
2023/01/29 08:39:54;;;;;;;1.80;1.70;;;;;;;20.09;30.81;100250.96;1868862;76;28606;-60
2023/01/29 08:42:43;;;;;;;2.05;1.90;;;;;;;20.08;30.87;100251.98;1877791;76;28181;-61
2023/01/29 08:45:34;;;;;;;1.87;1.77;;;;;;;20.10;30.79;100248.02;1878432;76;28171;-61
2023/01/29 08:48:24;;;;;;;1.87;1.77;;;;;;;20.08;30.79;100237.84;1878298;76;28604;-60
2023/01/29 08:51:13;;;;;;;1.77;1.67;;;;;;;20.07;30.81;100240.23;1878530;76;28161;-60
2023/01/29 08:54:01;;;;;;;1.80;1.70;;;;;;;20.06;30.82;100239.93;1859126;76;28223;-60
2023/01/29 08:56:51;;;;;;;1.75;1.65;;;;;;;20.08;30.81;100240.56;1878257;76;28105;-58
2023/01/29 08:59:39;;;;;;;1.60;1.50;;;;;;;20.10;30.81;100233.02;1876935;76;28113;-59
2023/01/29 09:02:28;;;;;;;2.02;1.90;;;;;;;20.09;30.81;100229.99;1862847;76;28096;-59
2023/01/29 09:05:16;;;;;;;1.77;1.67;;;;;;;20.08;30.80;100230.17;1857658;76;28133;-59
2023/01/29 09:08:06;;;;;;;1.77;1.67;;;;;;;20.10;30.77;100218.53;1878394;76;28196;-59
2023/01/29 09:10:56;;;;;;;1.87;1.77;;;;;;;20.09;30.77;100213.63;1878424;76;28268;-59
2023/01/29 09:13:45;;;;;;;1.80;1.70;;;;;;;20.10;30.79;100204.38;1862153;76;28160;-60
2023/01/29 09:16:33;;;;;;;1.80;1.70;;;;;;;20.07;30.80;100200.69;1878385;76;28113;-60
2023/01/29 09:19:22;;;;;;;1.57;1.47;;;;;;;20.09;30.79;100203.23;1878199;76;28133;-59
2023/01/29 09:22:10;;;;;;;1.95;1.75;;;;;;;20.09;30.81;100210.05;1878439;76;28145;-62
2023/01/29 09:24:58;;;;;;;1.80;1.70;;;;;;;20.10;30.75;100204.38;1860844;76;28172;-59
2023/01/29 09:27:47;;;;;;;1.90;1.80;;;;;;;20.08;30.77;100207.84;1878384;76;28153;-60
2023/01/29 09:30:36;;;;;;;1.90;1.80;;;;;;;20.10;30.77;100210.35;1878428;76;28142;-60
2023/01/29 09:33:25;;;;;;;1.70;1.60;;;;;;;20.08;30.79;100218.75;1878664;76;28167;-59
2023/01/29 09:36:13;;;;;;;2.27;1.72;;;;;;;20.10;30.78;100224.84;1878565;76;28210;-61
2023/01/29 09:39:01;;;;;;;1.80;1.70;;;;;;;20.09;30.79;100226.41;1878443;76;28228;-60
2023/01/29 09:42:02;;;;;;;1.90;1.80;;;;;;;20.08;30.83;100232.38;1853228;76;28224;-59
2023/01/29 09:44:53;;;;;;;1.43;1.43;;;;;;;20.09;30.77;100239.54;1857276;77;28162;-60
2023/01/29 09:47:43;;;;;;;1.50;1.50;;;;;;;20.06;30.81;100240.44;1857074;77;28154;-59
2023/01/29 09:50:40;;;;;;;1.80;1.70;;;;;;;20.09;30.79;100236.81;1868926;76;28160;-60
2023/01/29 09:53:48;;;;;;;1.80;1.70;;;;;;;20.09;30.82;100245.50;1857121;77;28098;-61
2023/01/29 09:56:37;;;;;;;1.87;1.77;;;;;;;20.06;30.84;100257.66;1868868;76;28116;-59
2023/01/29 09:59:28;;;;;;;1.80;1.70;;;;;;;20.05;30.85;100259.23;1856955;77;28594;-59
2023/01/29 10:02:36;;;;;;;2.08;1.98;;;;;;;20.06;30.83;100249.47;1839009;77;28160;-57
2023/01/29 10:05:35;;;;;;;1.65;1.55;;;;;;;20.06;30.85;100259.02;1838572;77;28179;-62
2023/01/29 10:08:45;;;;;;;1.75;1.65;;;;;;;19.96;30.88;100246.25;1845488;76;28188;-59
2023/01/29 10:11:42;;;;;;;1.82;1.72;;;;;;;20.04;30.91;100262.47;1856840;77;28176;-59
2023/01/29 10:14:55;;;;;;;1.62;1.52;;;;;;;20.03;30.94;100264.86;1868710;76;28124;-59
2023/01/29 10:18:20;;;;;;;1.72;1.62;;;;;;;20.01;30.91;100262.86;1857072;77;28150;-61
2023/01/29 10:21:45;;;;;;;1.73;1.63;;;;;;;19.99;30.94;100259.49;1856830;77;28220;-60
2023/01/29 10:24:48;;;;;;;2.00;1.80;;;;;;;19.96;30.99;100263.45;1844894;76;28212;-60
2023/01/29 10:27:39;;;;;;;1.80;1.70;;;;;;;19.95;31.02;100263.13;1826237;76;28183;-59
2023/01/29 10:30:39;;;;;;;1.75;1.65;;;;;;;19.96;31.01;100261.24;1844352;77;28170;-60
2023/01/29 10:33:33;;;;;;;1.80;1.70;;;;;;;19.98;30.99;100257.28;1868734;76;28109;-60
2023/01/29 10:36:27;;;;;;;1.90;1.80;;;;;;;19.98;31.00;100256.43;1826084;78;28199;-60
2023/01/29 10:39:19;;;;;;;1.82;1.72;;;;;;;20.00;30.98;100252.98;1855613;77;28196;-60
2023/01/29 10:42:31;;;;;;;1.80;1.70;;;;;;;19.99;30.97;100243.98;1868416;76;28656;-60
2023/01/29 10:45:23;;;;;;;1.80;1.70;;;;;;;20.01;30.96;100249.22;1853373;77;28208;-59
2023/01/29 10:48:38;;;;;;;1.70;1.60;;;;;;;19.99;30.98;100234.95;1835806;77;28380;-62
2023/01/29 10:51:33;;;;;;;1.60;1.50;;;;;;;20.03;30.93;100233.50;1856612;76;28630;-60
2023/01/29 10:54:31;;;;;;;1.90;1.80;;;;;;;19.99;31.00;100232.22;1851702;76;28234;-60
2023/01/29 10:57:29;;;;;;;1.80;1.70;;;;;;;20.00;30.94;100230.65;1859556;76;28129;-60
2023/01/29 11:00:20;;;;;;;1.57;1.50;;;;;;;20.00;30.93;100232.53;1857187;76;28306;-59
2023/01/29 11:03:20;;;;;;;1.90;1.80;;;;;;;20.03;30.94;100229.92;1856714;77;28115;-59
2023/01/29 11:06:36;;;;;;;2.02;1.80;;;;;;;20.04;30.95;100230.26;1857029;77;28172;-60
2023/01/29 11:09:36;;;;;;;1.90;1.72;;;;;;;20.04;30.94;100231.11;1788655;78;28335;-59
2023/01/29 11:12:29;;;;;;;1.70;1.60;;;;;;;20.01;30.95;100224.68;1774412;79;30353;-59
2023/01/29 11:15:26;;;;;;;1.82;1.72;;;;;;;20.04;30.96;100227.02;1834908;77;28129;-60
2023/01/29 11:18:15;;;;;;;1.60;1.50;;;;;;;20.04;30.95;100221.56;1826299;78;28231;-61
2023/01/29 11:21:05;;;;;;;1.80;1.70;;;;;;;20.01;30.94;100216.50;1852763;77;28170;-59
2023/01/29 11:24:17;;;;;;;2.25;1.60;;;;;;;20.04;30.96;100219.35;1856936;77;28176;-59
2023/01/29 11:27:15;;;;;;;1.70;1.60;;;;;;;20.06;30.93;100218.62;1868888;76;28150;-59
2023/01/29 11:30:04;;;;;;;1.60;1.60;;;;;;;20.05;30.93;100225.14;1868739;76;28109;-59
2023/01/29 11:33:12;;;;;;;1.50;1.40;;;;;;;20.04;30.95;100221.56;1826160;78;28193;-60
2023/01/29 11:36:02;;;;;;;1.70;1.60;;;;;;;20.06;30.95;100223.56;1835663;77;28164;-60
2023/01/29 11:39:10;;;;;;;1.70;1.60;;;;;;;20.06;30.94;100219.47;1856900;77;28207;-60
2023/01/29 11:42:06;;;;;;;1.57;1.52;;;;;;;20.05;30.96;100219.14;1856966;77;28180;-59
2023/01/29 11:44:54;;;;;;;1.77;1.67;;;;;;;20.03;31.00;100219.02;1874937;76;28676;-59
2023/01/29 11:47:42;;;;;;;1.50;1.50;;;;;;;20.05;30.93;100219.14;1878126;76;28191;-61
2023/01/29 11:50:33;;;;;;;1.72;1.62;;;;;;;20.05;30.94;100219.14;1841582;76;28231;-60
2023/01/29 11:53:34;;;;;;;1.80;1.70;;;;;;;20.06;30.94;100220.84;1871195;76;28207;-59
2023/01/29 11:56:41;;;;;;;1.80;1.70;;;;;;;20.09;30.92;100228.62;1902259;74;28105;-60
2023/01/29 11:59:42;;;;;;;1.70;1.60;;;;;;;20.08;30.91;100222.84;1877929;76;28590;-59
2023/01/29 12:02:37;;;;;;;1.77;1.67;;;;;;;20.04;30.94;100217.98;1863764;76;28121;-60
2023/01/29 12:05:26;;;;;;;1.60;1.50;;;;;;;20.04;30.97;100214.74;1859294;76;28170;-60
2023/01/29 12:08:18;;;;;;;1.90;1.70;;;;;;;20.02;30.98;100215.47;1847670;76;28735;-61
2023/01/29 12:11:33;;;;;;;1.75;1.65;;;;;;;20.05;30.95;100215.05;1869601;76;28107;-60
2023/01/29 12:14:28;;;;;;;1.90;1.80;;;;;;;20.04;30.96;100210.66;1875520;76;28121;-61
2023/01/29 12:17:25;;;;;;;1.70;1.60;;;;;;;20.03;30.98;100206.23;1844935;77;28231;-59
2023/01/29 12:20:21;;;;;;;1.75;1.65;;;;;;;20.04;30.96;100210.66;1847370;76;28215;-60
2023/01/29 12:23:36;;;;;;;1.70;1.60;;;;;;;20.07;30.94;100211.59;1857597;76;28147;-60
2023/01/29 12:26:30;;;;;;;1.70;1.60;;;;;;;20.01;30.95;100201.50;1857675;76;28278;-60
2023/01/29 12:29:53;;;;;;;1.37;1.33;;;;;;;19.96;31.00;100202.11;1877873;76;28167;-59
2023/01/29 12:32:48;;;;;;;1.55;1.50;;;;;;;20.03;31.06;100206.74;1877944;76;28063;-59
2023/01/29 12:35:39;;;;;;;1.67;1.57;;;;;;;20.01;31.01;100205.59;1878001;76;28165;-60
2023/01/29 12:38:28;;;;;;;1.72;1.62;;;;;;;20.03;31.05;100203.50;1877952;76;28099;-61
2023/01/29 12:41:36;;;;;;;1.70;1.60;;;;;;;20.03;31.03;100207.59;1877962;76;28121;-60
2023/01/29 12:44:41;;;;;;;1.60;1.50;;;;;;;20.05;30.97;100202.77;1862419;76;28365;-60
2023/01/29 12:47:48;;;;;;;1.72;1.62;;;;;;;20.06;30.97;100204.48;1848240;76;28119;-59
2023/01/29 12:50:38;;;;;;;1.63;1.53;;;;;;;20.03;30.97;100207.59;1868709;76;28097;-59
2023/01/29 12:53:35;;;;;;;1.52;1.50;;;;;;;20.02;31.00;100203.72;1868672;76;28199;-60
2023/01/29 12:56:29;;;;;;;1.50;1.40;;;;;;;20.07;30.95;100207.50;1868520;76;28160;-60
2023/01/29 12:59:21;;;;;;;1.70;1.60;;;;;;;20.08;30.95;100202.90;1868844;76;28145;-58
2023/01/29 13:02:38;;;;;;;1.80;1.70;;;;;;;20.06;30.96;100198.17;1834844;77;28256;-59
2023/01/29 13:05:35;;;;;;;1.60;1.50;;;;;;;20.07;30.96;100195.78;1850767;76;28134;-59
2023/01/29 13:08:50;;;;;;;1.75;1.65;;;;;;;20.03;30.99;100187.14;1868720;76;28227;-60
2023/01/29 13:11:55;;;;;;;1.85;1.75;;;;;;;20.02;31.04;100183.27;1868777;76;28124;-59
2023/01/29 13:14:49;;;;;;;1.80;1.70;;;;;;;20.02;30.97;100172.35;1844183;76;28231;-59
2023/01/29 13:17:44;;;;;;;1.85;1.75;;;;;;;20.00;31.00;100172.53;1868850;76;28567;-60
2023/01/29 13:20:35;;;;;;;1.77;1.67;;;;;;;20.05;30.96;100167.87;1868891;76;28113;-60
2023/01/29 13:23:35;;;;;;;1.62;1.52;;;;;;;20.04;30.94;100158.84;1852723;76;28243;-60
2023/01/29 13:26:25;;;;;;;1.60;1.60;;;;;;;20.03;30.97;100155.78;1837674;77;28281;-58
2023/01/29 13:29:28;;;;;;;1.70;1.60;;;;;;;20.04;30.99;100150.66;1864861;76;28233;-59
2023/01/29 13:32:28;;;;;;;1.77;1.67;;;;;;;20.05;30.95;100149.59;1868786;76;28129;-59
2023/01/29 13:35:19;;;;;;;1.50;1.50;;;;;;;20.05;30.97;100149.59;1868895;76;28125;-60
2023/01/29 13:38:19;;;;;;;2.30;1.60;;;;;;;19.99;30.95;100143.59;1869055;76;28086;-60
2023/01/29 13:41:08;;;;;;;1.70;1.60;;;;;;;20.04;30.96;100147.94;1851075;76;28601;-59
2023/01/29 13:43:57;;;;;;;1.80;1.70;;;;;;;20.05;30.94;100144.14;1868786;76;28156;-60
2023/01/29 13:46:51;;;;;;;1.80;1.70;;;;;;;20.08;30.93;100144.27;1860188;76;38926;-59
2023/01/29 13:49:45;;;;;;;1.70;1.60;;;;;;;20.08;30.92;100139.66;1856813;77;28231;-59
2023/01/29 13:52:55;;;;;;;1.40;1.30;;;;;;;20.06;30.92;100134.93;1841013;77;28137;-60
2023/01/29 13:55:43;;;;;;;1.65;1.55;;;;;;;20.05;30.92;100135.96;1839227;75;28028;-61
2023/01/29 13:58:34;;;;;;;1.60;1.50;;;;;;;19.99;30.95;100129.45;1856849;77;28180;-61